• Join FlightAware (Why Join?)
  • Login
  • US Flag 
04:18AM EDT


 

Airport Tracker/Info


-or-


 

Live Flight TrackerFlight Track Log ✈ EGF3418 ✈ 13-Apr-2013 ✈ KDFW - KAMA

Flight Track Log - Related Links

Times and Time Zones

All times are in EDT time to prevent confusion due to time zone crossing. See the EGF3418 flight status page for this flight to view local times or setup timezone preferences in your user account.

Time Position Orientation Groundspeed Altitude Reporting Facility
EDT Latitude Longitude Course Direction KTS MPH feet Rate Location/Type
03:49PM 32.8667 -97.0500 308° West 175 201 1,800  Level Dallas / Fort Worth TRACON
03:50PM 32.8167 -97.0667 196° South 235 270 4,200 2,640 Climbing Dallas / Fort Worth TRACON
03:51PM 32.7746 -97.2460 307° West  Level FlightAware Approximate
03:51PM 32.7667 -97.1000 209° Southwest 248 285 6,700  Level Dallas / Fort Worth TRACON
03:52PM 32.8311 -97.3364 307° West  Level FlightAware Approximate
03:52PM 32.8000 -97.2000 292° West 294 338 9,300  Level Dallas / Fort Worth TRACON
03:52PM 32.8375 -97.2575 308° West 299 344 10,600 1,320 Climbing Fort Worth Center
03:53PM 32.8892 -97.4254 308° West  Level FlightAware Approximate
03:53PM 32.8875 -97.3542 302° West 323 372 11,700  Level Fort Worth Center
03:54PM 32.9480 -97.5137 308° West  Level FlightAware Approximate
03:54PM 32.9419 -97.4556 303° West 352 405 12,800  Level Fort Worth Center
03:55PM 32.9981 -97.5597 303° West 368 423 14,300 1,380 Climbing Fort Worth Center
03:56PM 33.0564 -97.6686 303° West 383 441 15,600 1,260 Climbing Fort Worth Center
03:57PM 33.1000 -97.7631 299° West 376 433 16,900 1,500 Climbing Fort Worth Center
03:58PM 33.1392 -97.8897 290° West 366 421 18,600 1,500 Climbing Fort Worth Center
03:59PM 33.1722 -97.9917 291° West 371 427 20,000 1,680 Climbing Fort Worth Center
04:00PM 33.2114 -98.1186 290° West 366 421 22,000 1,920 Climbing Fort Worth Center
04:01PM 33.2481 -98.2306 291° West 371 427 23,900 1,800 Climbing Fort Worth Center
04:02PM 33.2808 -98.3353 291° West 357 411 25,700 1,380 Climbing Fort Worth Center
04:03PM 33.3092 -98.4325 289° West 340 391 26,700 1,020 Climbing Fort Worth Center
04:04PM 33.3478 -98.5550 291° West 346 398 27,800 1,020 Climbing Fort Worth Center
04:05PM 33.3822 -98.6672 290° West 359 413 28,800 960 Climbing Fort Worth Center
04:06PM 33.4186 -98.7847 290° West 366 421 29,800 1,140 Climbing Fort Worth Center
04:07PM 33.4550 -98.8997 291° West 371 427 31,100 1,080 Climbing Fort Worth Center
04:08PM 33.4908 -99.0225 289° West 371 427 32,000 420 Climbing Fort Worth Center
04:09PM 33.5289 -99.1478 290° West 384 442 32,000 660 Level Fort Worth Center
04:10PM 33.5689 -99.2758 291° West 403 464 33,400 960 Climbing Fort Worth Center
04:11PM 33.6067 -99.4011 290° West 410 472 34,000 300 Climbing Fort Worth Center
04:12PM 33.6778 -99.5103 308° West 410 472 34,000  Level Fort Worth Center
04:13PM 33.7639 -99.6072 317° Northwest 415 478 34,000  Level Fort Worth Center
04:14PM 33.8517 -99.7069 317° Northwest 420 483 34,000  Level Fort Worth Center
04:15PM 33.9356 -99.8017 317° Northwest 420 483 34,000  Level Fort Worth Center
04:16PM 34.0192 -99.8942 317° Northwest 415 478 34,000  Level Fort Worth Center
04:17PM 34.1069 -99.9919 317° Northwest 415 478 34,000 -300 Level Fort Worth Center
04:18PM 34.1925 -100.0925 316° Northwest 420 483 33,400 -1,500 Descending Fort Worth Center
04:21PM 34.3600 -100.2778 318° Northwest 421 484 29,500 -1,920 Descending Albuquerque Center
04:22PM 34.4333 -100.3914 308° West 429 494 27,500 -2,160 Descending Albuquerque Center
04:23PM 34.5194 -100.5292 307° West 427 491 25,100 -1,980 Descending Albuquerque Center
04:24PM 34.5906 -100.6428 307° West 427 491 23,500 -1,800 Descending Albuquerque Center
04:25PM 34.6586 -100.7536 307° West 419 482 21,500 -1,980 Descending Albuquerque Center
04:26PM 34.7253 -100.8606 307° West 408 470 19,500 -2,100 Descending Albuquerque Center
04:27PM 34.7881 -100.9642 306° West 389 448 17,300 -2,100 Descending Albuquerque Center
04:28PM 34.8486 -101.0633 307° West 373 429 15,200 -2,040 Descending Albuquerque Center
04:29PM 34.9139 -101.1594 310° West 368 423 13,200 -2,040 Descending Albuquerque Center
04:30PM 35.0056 -101.2425 323° Northwest 343 395 11,100 -1,740 Descending Albuquerque Center
04:31PM 35.0739 -101.3036 324° Northwest 318 366 9,700 -1,440 Descending Albuquerque Center
04:32PM 35.1383 -101.3647 322° Northwest 306 352 8,200 -1,200 Descending Albuquerque Center
04:33PM 35.2000 -101.4278 320° Northwest 297 342 7,300 -900 Descending Albuquerque Center